createdAt,value
2019-01-16T00:00:09.260Z,100435.72
2019-01-16T00:03:10.100Z,100443.27
2019-01-16T00:06:04.796Z,100440.41
2019-01-16T00:08:51.563Z,100433.55
2019-01-16T00:11:32.090Z,100444.41
2019-01-16T00:14:19.285Z,100444.61
2019-01-16T00:17:07.904Z,100434.03
2019-01-16T00:19:51.880Z,100440.34
2019-01-16T00:22:46.752Z,100430.56
2019-01-16T00:25:34.142Z,100438.66
2019-01-16T00:28:26.040Z,100440.75
2019-01-16T00:31:09.704Z,100434.64
2019-01-16T00:33:47.384Z,100435.59
2019-01-16T00:36:27.241Z,100430.91
2019-01-16T00:39:22.208Z,100426.39
2019-01-16T00:42:10.798Z,100428.78
2019-01-16T00:45:05.114Z,100429.55
2019-01-16T00:48:03.427Z,100428.78
2019-01-16T00:50:51.910Z,100428.97
2019-01-16T00:53:31.462Z,100436.87
2019-01-16T00:56:08.366Z,100433.30
2019-01-16T00:58:55.816Z,100437.19
2019-01-16T01:01:43.172Z,100435.41
2019-01-16T01:04:30.767Z,100437.59
2019-01-16T01:07:18.175Z,100427.16
2019-01-16T01:10:14.556Z,100425.16
2019-01-16T01:13:10.945Z,100427.03
2019-01-16T01:15:58.910Z,100430.78
2019-01-16T01:18:58.093Z,100423.08
2019-01-16T01:21:45.620Z,100429.45
2019-01-16T01:24:49.870Z,100424.42
2019-01-16T01:27:42.376Z,100434.06
2019-01-16T01:30:46.558Z,100434.80
2019-01-16T01:33:26.618Z,100446.70
2019-01-16T01:36:13.926Z,100434.52
2019-01-16T01:38:58.927Z,100441.83
2019-01-16T01:41:56.622Z,100441.80
2019-01-16T01:44:43.884Z,100437.92
2019-01-16T01:47:35.570Z,100442.82
2019-01-16T01:50:37.593Z,100440.69
2019-01-16T01:53:33.168Z,100441.10
2019-01-16T01:56:20.977Z,100441.73
2019-01-16T01:59:08.498Z,100443.42
2019-01-16T02:02:00.201Z,100437.37
2019-01-16T02:04:47.500Z,100433.08
2019-01-16T02:07:36.944Z,100437.47
2019-01-16T02:10:26.202Z,100438.43
2019-01-16T02:13:10.182Z,100435.84
2019-01-16T02:16:06.461Z,100433.78
2019-01-16T02:18:55.118Z,100435.94
2019-01-16T02:22:02.077Z,100431.88
2019-01-16T02:24:49.748Z,100430.41
2019-01-16T02:27:44.491Z,100424.64
2019-01-16T02:30:33.376Z,100425.76
2019-01-16T02:33:20.972Z,100411.94
2019-01-16T02:36:07.773Z,100413.84
2019-01-16T02:38:47.542Z,100413.47
2019-01-16T02:41:33.230Z,100417.73
2019-01-16T02:44:15.196Z,100412.61
2019-01-16T02:47:12.259Z,100408.60
2019-01-16T02:50:00.859Z,100405.92
2019-01-16T02:52:42.193Z,100392.63
2019-01-16T02:55:29.763Z,100401.98
2019-01-16T02:58:27.680Z,100400.04
2019-01-16T03:01:15.021Z,100407.33
2019-01-16T03:04:01.009Z,100400.52
2019-01-16T03:06:48.170Z,100401.25
2019-01-16T03:09:39.897Z,100393.29
2019-01-16T03:12:28.465Z,100391.89
2019-01-16T03:15:20.054Z,100385.20
2019-01-16T03:18:07.721Z,100381.80
2019-01-16T03:20:55.215Z,100383.99
2019-01-16T03:23:35.657Z,100368.02
2019-01-16T03:26:29.853Z,100370.45
2019-01-16T03:29:09.572Z,100371.84
2019-01-16T03:32:16.402Z,100367.98
2019-01-16T03:35:14.174Z,100367.27
2019-01-16T03:38:11.695Z,100368.84
2019-01-16T03:41:00.655Z,100361.52
2019-01-16T03:43:49.235Z,100359.52
2019-01-16T03:46:28.847Z,100365.23
2019-01-16T03:49:23.597Z,100351.70
2019-01-16T03:52:14.970Z,100344.65
2019-01-16T03:55:02.200Z,100362.25
2019-01-16T03:58:03.115Z,100349.05
2019-01-16T04:00:54.594Z,100351.33
2019-01-16T04:03:41.199Z,100337.67
2019-01-16T04:06:28.493Z,100337.62
2019-01-16T04:09:32.075Z,100336.41
2019-01-16T04:12:28.663Z,100338.85
2019-01-16T04:15:17.035Z,100336.18
2019-01-16T04:18:20.795Z,100325.42
2019-01-16T04:21:12.607Z,100326.09
2019-01-16T04:24:10.330Z,100326.20
2019-01-16T04:26:58.472Z,100314.83
2019-01-16T04:29:46.073Z,100320.19
2019-01-16T04:32:37.469Z,100318.62
2019-01-16T04:35:18.107Z,100309.44
2019-01-16T04:37:56.295Z,100317.27
2019-01-16T04:40:44.854Z,100307.87
2019-01-16T04:43:29.089Z,100307.44
2019-01-16T04:46:24.183Z,100307.04
2019-01-16T04:49:14.315Z,100295.17
2019-01-16T04:52:05.868Z,100301.48
2019-01-16T04:54:53.256Z,100295.89
2019-01-16T04:57:47.713Z,100286.16
2019-01-16T05:00:42.125Z,100280.98
2019-01-16T05:03:45.544Z,100278.42
2019-01-16T05:06:37.150Z,100290.06
2019-01-16T05:09:25.954Z,100283.05
2019-01-16T05:12:09.476Z,100289.10
2019-01-16T05:14:59.677Z,100286.25
2019-01-16T05:17:51.037Z,100284.44
2019-01-16T05:20:38.285Z,100282.97
2019-01-16T05:23:14.635Z,100285.44
2019-01-16T05:26:07.293Z,100287.39
2019-01-16T05:28:44.566Z,100282.65
2019-01-16T05:31:35.658Z,100285.72
2019-01-16T05:34:30.260Z,100290.50
2019-01-16T05:37:21.715Z,100283.50
2019-01-16T05:40:14.987Z,100275.84
2019-01-16T05:42:53.182Z,100271.79
2019-01-16T05:45:37.705Z,100272.23
2019-01-16T05:48:26.295Z,100274.75
2019-01-16T05:51:24.206Z,100267.87
2019-01-16T05:54:11.851Z,100270.28
2019-01-16T05:56:59.550Z,100266.39
2019-01-16T05:59:54.370Z,100279.95
2019-01-16T06:02:42.076Z,100266.27
2019-01-16T06:05:24.303Z,100262.27
2019-01-16T06:08:15.756Z,100262.48
2019-01-16T06:10:58.802Z,100257.54
2019-01-16T06:13:46.148Z,100261.08
2019-01-16T06:16:46.638Z,100269.55
2019-01-16T06:19:35.314Z,100259.70
2019-01-16T06:22:22.858Z,100255.90
2019-01-16T06:25:11.469Z,100252.19
2019-01-16T06:28:06.225Z,100245.90
2019-01-16T06:30:51.718Z,100256.03
2019-01-16T06:33:31.226Z,100248.52
2019-01-16T06:36:18.970Z,100245.85
2019-01-16T06:39:13.262Z,100255.20
2019-01-16T06:42:04.816Z,100252.36
2019-01-16T06:44:52.470Z,100244.34
2019-01-16T06:47:48.270Z,100246.91
2019-01-16T06:50:28.584Z,100253.16
2019-01-16T06:53:19.626Z,100242.64
2019-01-16T06:56:12.610Z,100249.16
2019-01-16T06:59:04.020Z,100255.07
2019-01-16T07:01:55.001Z,100249.35
2019-01-16T07:04:46.509Z,100245.14
2019-01-16T07:07:28.106Z,100249.64
2019-01-16T07:10:07.790Z,100247.99
2019-01-16T07:13:02.284Z,100248.16
2019-01-16T07:16:03.103Z,100248.63
2019-01-16T07:18:46.848Z,100248.89
2019-01-16T07:21:50.915Z,100243.05
2019-01-16T07:24:57.810Z,100239.94
2019-01-16T07:27:49.177Z,100238.27
2019-01-16T07:30:36.380Z,100246.28
2019-01-16T07:33:16.226Z,100244.80
2019-01-16T07:36:10.664Z,100237.66
2019-01-16T07:38:59.260Z,100239.26
2019-01-16T07:41:46.691Z,100236.61
2019-01-16T07:44:38.494Z,100236.81
2019-01-16T07:47:39.250Z,100232.97
2019-01-16T07:50:22.705Z,100233.29
2019-01-16T07:53:08.927Z,100238.32
2019-01-16T07:55:49.252Z,100239.09
2019-01-16T07:58:33.200Z,100240.54
2019-01-16T08:01:26.048Z,100242.33
2019-01-16T08:04:19.830Z,100236.27
2019-01-16T08:07:06.980Z,100239.66
2019-01-16T08:09:43.716Z,100243.44
2019-01-16T08:12:47.440Z,100241.53
2019-01-16T08:15:49.701Z,100240.31
2019-01-16T08:18:28.140Z,100241.05
2019-01-16T08:21:11.509Z,100232.41
2019-01-16T08:23:48.236Z,100237.98
2019-01-16T08:26:45.892Z,100234.85
2019-01-16T08:29:33.492Z,100227.88
2019-01-16T08:32:21.064Z,100229.67
2019-01-16T08:35:09.202Z,100221.20
2019-01-16T08:38:09.881Z,100228.11
2019-01-16T08:41:04.535Z,100223.22
2019-01-16T08:43:52.230Z,100223.27
2019-01-16T08:46:33.025Z,100222.70
2019-01-16T08:49:24.875Z,100231.47
2019-01-16T08:52:10.668Z,100229.61
2019-01-16T08:55:06.221Z,100218.25
2019-01-16T08:57:58.826Z,100215.70
2019-01-16T09:00:47.519Z,100208.73
2019-01-16T09:03:35.050Z,100212.84
2019-01-16T09:06:22.581Z,100209.06
2019-01-16T09:09:07.377Z,100206.81
2019-01-16T09:11:52.321Z,100201.14
2019-01-16T09:14:53.054Z,100199.76
2019-01-16T09:17:42.341Z,100202.98
2019-01-16T09:20:19.697Z,100206.14
2019-01-16T09:23:01.908Z,100197.09
2019-01-16T09:25:57.969Z,100194.00
2019-01-16T09:28:53.552Z,100185.42
2019-01-16T09:31:54.162Z,100180.53
2019-01-16T09:34:51.735Z,100178.91
2019-01-16T09:37:36.802Z,100180.91
2019-01-16T09:40:39.479Z,100179.65
2019-01-16T09:43:28.116Z,100176.92
2019-01-16T09:46:17.319Z,100175.90
2019-01-16T09:49:04.279Z,100166.98
2019-01-16T09:51:53.028Z,100172.66
2019-01-16T09:54:34.027Z,100170.45
2019-01-16T09:57:28.841Z,100169.42
2019-01-16T10:00:16.049Z,100167.72
2019-01-16T10:03:03.802Z,100167.03
2019-01-16T10:05:58.937Z,100163.97
2019-01-16T10:08:40.401Z,100168.31
2019-01-16T10:11:31.834Z,100162.67
2019-01-16T10:14:11.354Z,100151.31
2019-01-16T10:16:52.765Z,100146.88
2019-01-16T10:19:40.441Z,100142.00
2019-01-16T10:22:29.055Z,100145.14
2019-01-16T10:25:19.239Z,100144.59
2019-01-16T10:28:05.165Z,100142.00
2019-01-16T10:30:57.077Z,100150.13
2019-01-16T10:33:44.877Z,100138.81
2019-01-16T10:36:26.502Z,100138.30
2019-01-16T10:39:13.193Z,100126.41
2019-01-16T10:42:13.891Z,100125.77
2019-01-16T10:44:49.926Z,100115.33
2019-01-16T10:47:37.348Z,100118.34
2019-01-16T10:50:33.907Z,100107.73
2019-01-16T10:53:35.414Z,100101.73
2019-01-16T10:56:17.428Z,100100.96
2019-01-16T10:58:59.935Z,100103.03
2019-01-16T11:01:39.592Z,100101.92
2019-01-16T11:04:28.210Z,100096.00
2019-01-16T11:07:15.772Z,100090.02
2019-01-16T11:10:13.354Z,100088.82
2019-01-16T11:13:05.007Z,100082.86
2019-01-16T11:15:47.611Z,100076.91
2019-01-16T11:18:35.103Z,100081.98
2019-01-16T11:21:26.917Z,100069.62
2019-01-16T11:24:24.923Z,100070.22
2019-01-16T11:27:04.963Z,100077.98
2019-01-16T11:29:52.953Z,100080.92
2019-01-16T11:32:40.493Z,100073.54
2019-01-16T11:35:29.183Z,100064.28
2019-01-16T11:38:17.802Z,100061.36
2019-01-16T11:41:01.970Z,100058.41
2019-01-16T11:43:49.454Z,100051.87
2019-01-16T11:46:47.179Z,100053.86
2019-01-16T11:49:49.485Z,100044.18
2019-01-16T11:52:40.853Z,100040.99
2019-01-16T11:55:35.670Z,100056.94
2019-01-16T11:58:24.665Z,100068.19
2019-01-16T12:01:13.407Z,100056.06
2019-01-16T12:04:14.418Z,100059.46
2019-01-16T12:07:10.107Z,100058.60
2019-01-16T12:09:58.018Z,100043.62
2019-01-16T12:12:40.925Z,100044.36
2019-01-16T12:15:28.285Z,100037.58
2019-01-16T12:18:14.113Z,100035.50
2019-01-16T12:21:05.655Z,100025.78
2019-01-16T12:23:55.368Z,100032.13
2019-01-16T12:26:44.118Z,100007.23
2019-01-16T12:29:32.752Z,100004.84
2019-01-16T12:32:23.374Z,100001.77
2019-01-16T12:35:09.771Z,100004.34
2019-01-16T12:37:50.853Z,100009.74
2019-01-16T12:40:51.433Z,99998.44
2019-01-16T12:43:43.250Z,99996.28
2019-01-16T12:46:32.782Z,99990.47
2019-01-16T12:49:15.613Z,99984.75
2019-01-16T12:52:10.265Z,99991.91
2019-01-16T12:54:57.924Z,99982.59
2019-01-16T12:57:45.746Z,99986.78
2019-01-16T13:00:43.818Z,99985.03
2019-01-16T13:03:38.800Z,99985.00
2019-01-16T13:06:18.866Z,99980.61
2019-01-16T13:09:01.835Z,99967.19
2019-01-16T13:11:49.236Z,99970.70
2019-01-16T13:14:36.850Z,99955.59
2019-01-16T13:17:29.609Z,99957.69
2019-01-16T13:20:30.244Z,99952.94
2019-01-16T13:23:18.984Z,99955.90
2019-01-16T13:26:20.038Z,99960.41
2019-01-16T13:29:05.574Z,99963.26
2019-01-16T13:31:54.556Z,99953.72
2019-01-16T13:34:46.187Z,99953.59
2019-01-16T13:37:33.766Z,99949.95
2019-01-16T13:40:23.552Z,99942.42
2019-01-16T13:43:21.357Z,99945.73
2019-01-16T13:46:14.289Z,99933.58
2019-01-16T13:48:57.005Z,99941.87
2019-01-16T13:51:46.119Z,99936.75
2019-01-16T13:54:29.530Z,99934.23
2019-01-16T13:57:20.896Z,99939.66
2019-01-16T14:00:05.478Z,99934.89
2019-01-16T14:02:44.914Z,99937.81
2019-01-16T14:05:22.354Z,99929.45
2019-01-16T14:08:01.160Z,99923.69
2019-01-16T14:10:45.185Z,99924.83
2019-01-16T14:13:28.864Z,99922.28
2019-01-16T14:16:17.782Z,99918.63
2019-01-16T14:19:10.426Z,99916.98
2019-01-16T14:22:03.740Z,99919.34
2019-01-16T14:25:01.756Z,99905.88
2019-01-16T14:28:08.646Z,99911.13
2019-01-16T14:30:56.182Z,99909.92
2019-01-16T14:33:43.670Z,99910.66
2019-01-16T14:36:25.022Z,99910.26
2019-01-16T14:39:12.268Z,99900.62
2019-01-16T14:42:12.556Z,99914.22
2019-01-16T14:45:00.216Z,99905.55
2019-01-16T14:47:57.730Z,99897.48
2019-01-16T14:50:32.480Z,99909.41
2019-01-16T14:53:19.786Z,99899.57
2019-01-16T14:56:08.392Z,99896.80
2019-01-16T14:58:55.629Z,99895.19
2019-01-16T15:01:44.323Z,99897.03
2019-01-16T15:04:39.183Z,99892.75
2019-01-16T15:07:23.706Z,99900.39
2019-01-16T15:10:11.056Z,99905.45
2019-01-16T15:12:56.295Z,99894.80
2019-01-16T15:15:43.509Z,99889.28
2019-01-16T15:18:29.651Z,99891.32
2019-01-16T15:21:18.226Z,99895.28
2019-01-16T15:24:05.920Z,99890.17
2019-01-16T15:27:06.610Z,99883.90
2019-01-16T15:29:52.229Z,99883.90
2019-01-16T15:32:50.275Z,99886.02
2019-01-16T15:35:44.755Z,99888.50
2019-01-16T15:38:36.520Z,99881.27
2019-01-16T15:41:25.521Z,99877.91
2019-01-16T15:44:14.237Z,99876.67
2019-01-16T15:47:05.947Z,99872.80
2019-01-16T15:49:52.413Z,99867.55
2019-01-16T15:52:33.372Z,99854.06
2019-01-16T15:55:20.153Z,99845.85
2019-01-16T15:58:01.549Z,99839.81
2019-01-16T16:00:46.317Z,99836.09
2019-01-16T16:03:28.123Z,99838.80
2019-01-16T16:06:15.351Z,99849.08
2019-01-16T16:09:03.052Z,99829.50
2019-01-16T16:11:43.527Z,99829.00
2019-01-16T16:14:23.615Z,99825.74
2019-01-16T16:17:10.999Z,99837.11
2019-01-16T16:19:59.741Z,99828.36
2019-01-16T16:22:41.892Z,99819.10
2019-01-16T16:25:29.438Z,99822.32
2019-01-16T16:28:23.809Z,99829.75
2019-01-16T16:31:21.443Z,99835.05
2019-01-16T16:34:19.321Z,99829.14
2019-01-16T16:37:01.755Z,99820.76
2019-01-16T16:39:48.984Z,99832.70
2019-01-16T16:42:36.204Z,99811.55
2019-01-16T16:45:26.616Z,99810.30
2019-01-16T16:48:18.259Z,99801.09
2019-01-16T16:51:05.675Z,99788.58
2019-01-16T16:54:00.997Z,99793.61
2019-01-16T16:56:44.195Z,99787.43
2019-01-16T16:59:33.462Z,99791.39
2019-01-16T17:02:24.403Z,99793.14
2019-01-16T17:05:25.182Z,99775.41
2019-01-16T17:08:12.386Z,99774.49
2019-01-16T17:10:59.638Z,99775.74
2019-01-16T17:13:36.467Z,99770.40
2019-01-16T17:16:16.189Z,99766.06
2019-01-16T17:19:01.145Z,99769.56
2019-01-16T17:21:42.045Z,99760.50
2019-01-16T17:24:29.608Z,99747.79
2019-01-16T17:27:14.818Z,99750.94
2019-01-16T17:29:57.928Z,99759.77
2019-01-16T17:32:44.645Z,99752.34
2019-01-16T17:35:48.705Z,99758.57
2019-01-16T17:38:35.960Z,99759.77
2019-01-16T17:41:27.466Z,99748.68
2019-01-16T17:44:25.418Z,99744.91
2019-01-16T17:47:32.127Z,99737.37
2019-01-16T17:50:19.080Z,99731.66
2019-01-16T17:53:11.225Z,99732.34
2019-01-16T17:56:01.963Z,99731.14
2019-01-16T17:58:53.728Z,99722.17
2019-01-16T18:01:41.462Z,99721.48
2019-01-16T18:04:28.403Z,99718.22
2019-01-16T18:07:35.476Z,99705.65
2019-01-16T18:10:44.219Z,99707.03
2019-01-16T18:13:27.960Z,99708.14
2019-01-16T18:16:15.489Z,99701.64
2019-01-16T18:19:02.967Z,99707.44
2019-01-16T18:21:50.305Z,99699.82
2019-01-16T18:24:47.864Z,99692.69
2019-01-16T18:27:44.228Z,99698.02
2019-01-16T18:30:46.732Z,99692.41
2019-01-16T18:33:34.006Z,99693.23
2019-01-16T18:36:17.598Z,99699.11
2019-01-16T18:38:57.496Z,99687.53
2019-01-16T18:41:37.353Z,99682.20
2019-01-16T18:44:38.228Z,99669.22
2019-01-16T18:47:39.353Z,99673.69
2019-01-16T18:50:30.552Z,99678.30
2019-01-16T18:53:21.028Z,99677.45
2019-01-16T18:55:59.621Z,99670.70
2019-01-16T18:58:40.760Z,99656.86
2019-01-16T19:01:27.068Z,99657.55
2019-01-16T19:04:08.088Z,99660.40
2019-01-16T19:06:55.700Z,99660.40
2019-01-16T19:09:42.990Z,99660.12
2019-01-16T19:12:31.632Z,99657.36
2019-01-16T19:15:19.020Z,99649.13
2019-01-16T19:18:10.013Z,99648.48
2019-01-16T19:21:02.484Z,99641.41
2019-01-16T19:24:03.510Z,99639.16
2019-01-16T19:26:50.908Z,99639.25
2019-01-16T19:29:38.232Z,99640.30
2019-01-16T19:32:30.071Z,99640.30
2019-01-16T19:35:18.823Z,99633.45
2019-01-16T19:38:25.948Z,99631.24
2019-01-16T19:41:13.158Z,99629.20
2019-01-16T19:44:00.330Z,99624.44
2019-01-16T19:46:40.592Z,99619.25
2019-01-16T19:49:38.435Z,99619.11
2019-01-16T19:52:23.586Z,99613.59
2019-01-16T19:55:14.225Z,99612.16
2019-01-16T19:58:00.901Z,99603.51
2019-01-16T20:00:49.509Z,99603.84
2019-01-16T20:03:56.648Z,99599.69
2019-01-16T20:06:51.508Z,99594.41
2019-01-16T20:09:35.672Z,99583.06
2019-01-16T20:12:33.661Z,99581.59
2019-01-16T20:15:11.870Z,99575.84
2019-01-16T20:17:53.098Z,99576.50
2019-01-16T20:20:34.673Z,99566.14
2019-01-16T20:23:30.997Z,99559.48
2019-01-16T20:26:19.618Z,99552.33
2019-01-16T20:29:15.616Z,99550.98
2019-01-16T20:32:10.058Z,99546.39
2019-01-16T20:35:09.954Z,99536.83
2019-01-16T20:38:06.789Z,99535.31
2019-01-16T20:40:48.238Z,99539.30
2019-01-16T20:43:35.545Z,99535.73
2019-01-16T20:46:18.283Z,99526.45
2019-01-16T20:49:05.813Z,99524.42
2019-01-16T20:52:03.778Z,99523.86
2019-01-16T20:54:45.755Z,99517.48
2019-01-16T20:57:32.804Z,99509.53
2019-01-16T21:00:15.788Z,99520.16
2019-01-16T21:03:00.660Z,99501.41
2019-01-16T21:05:45.678Z,99508.12
2019-01-16T21:08:38.081Z,99490.36
2019-01-16T21:11:18.278Z,99489.86
2019-01-16T21:13:57.922Z,99500.26
2019-01-16T21:16:45.919Z,99490.89
2019-01-16T21:19:41.236Z,99493.81
2019-01-16T21:22:48.574Z,99476.36
2019-01-16T21:25:45.415Z,99484.13
2019-01-16T21:28:32.922Z,99468.84
2019-01-16T21:31:20.198Z,99469.92
2019-01-16T21:34:07.563Z,99466.39
2019-01-16T21:37:05.433Z,99464.59
2019-01-16T21:39:54.347Z,99466.49
2019-01-16T21:42:41.942Z,99462.35
2019-01-16T21:45:27.201Z,99457.52
2019-01-16T21:48:22.993Z,99443.87
2019-01-16T21:51:11.713Z,99439.55
2019-01-16T21:53:50.725Z,99454.57
2019-01-16T21:56:48.470Z,99439.83
2019-01-16T21:59:49.224Z,99444.45
2019-01-16T22:02:39.814Z,99446.10
2019-01-16T22:05:34.021Z,99433.72
2019-01-16T22:08:17.233Z,99427.81
2019-01-16T22:11:18.252Z,99424.97
2019-01-16T22:14:22.678Z,99410.89
2019-01-16T22:17:08.470Z,99409.44
2019-01-16T22:19:55.888Z,99403.72
2019-01-16T22:22:37.968Z,99401.17
2019-01-16T22:25:19.218Z,99394.27
2019-01-16T22:28:13.787Z,99390.23
2019-01-16T22:31:02.417Z,99395.26
2019-01-16T22:34:02.979Z,99390.28
2019-01-16T22:36:50.256Z,99384.72
2019-01-16T22:39:42.364Z,99366.14
2019-01-16T22:42:25.036Z,99360.69
2019-01-16T22:45:13.951Z,99363.09
2019-01-16T22:47:55.789Z,99353.36
2019-01-16T22:50:43.683Z,99354.69
2019-01-16T22:53:31.401Z,99351.17
2019-01-16T22:56:38.176Z,99347.72
2019-01-16T22:59:24.767Z,99338.55
2019-01-16T23:02:02.663Z,99337.96
2019-01-16T23:04:49.823Z,99338.94
2019-01-16T23:07:29.762Z,99325.84
2019-01-16T23:10:17.315Z,99324.02
2019-01-16T23:13:05.295Z,99323.30
2019-01-16T23:15:52.501Z,99316.61
2019-01-16T23:18:39.733Z,99314.98
2019-01-16T23:21:26.547Z,99310.09
2019-01-16T23:24:20.483Z,99304.72
2019-01-16T23:27:11.927Z,99313.12
2019-01-16T23:29:53.361Z,99301.37
2019-01-16T23:32:47.290Z,99295.80
2019-01-16T23:35:30.867Z,99300.23
2019-01-16T23:38:28.487Z,99302.27
2019-01-16T23:41:25.993Z,99293.92
2019-01-16T23:44:07.359Z,99296.18
2019-01-16T23:47:08.293Z,99287.56
2019-01-16T23:49:59.917Z,99283.02
2019-01-16T23:52:48.603Z,99286.77
2019-01-16T23:55:39.955Z,99291.53
2019-01-16T23:58:26.337Z,99301.63
